Content
SEND FEEDBACK

Daily
Averages
Monthly
Summary
Canada

CASEY, QUEBEC


Home > North America > Canada > Quebec
Elevation: 1291 feet     Latitude: 47 56N     Longitude: 074 05W

WEATHER
 
SELECT A DAY
Number of Records: 160,410;   Date Range: 1/1/95 - 7/28/14
 
SHARE

PRINT THIS DATA

[ ← Previous Day ]
WEATHER ALMANAC - JANUARY 31, 2013
[ Next Day → ]
[ °C ]   °F
Weather ElementAverageHighLow
Temperature20 °F43 °F (4:00 am)-2.4 °F (11:00 pm)
Dewpoint16.4 °F43 °F (4:00 am)-8.5 °F (10:00 pm)
Humidity84.4 %100 % (1:00 am)58 % (4:00 pm)
Barometer28.95 in29.39 in (11:00 pm)28.63 in (7:00 am)
Wind Speed10.9 mph17.3 mph (3:00 pm)
Wind Gust32.2 mph (6:00 pm)
Weather ElementAverage
Wind DirectionSW (228.4 °)

Weather ElementTotal
Precipitation0.57 in
Heating Degree Days44.7 (Base 65)
Averaged from 31 records on January 31, 2013
WEATHER CONDITIONS BREAKOUT
WIND DIRECTION BREAKOUT
WEATHER BY HOUR - JANUARY 31, 2013
[ °C ]   °F
Local TimeTemperatureDewpointHumidityBarometerVisibilityWind DirectionWind SpeedGust SpeedPrecipitationEventsConditions
1:00 AM33.0 °F33.0 °F97 %29.03 inESE (110°)1.2 mph
1:00 AM31.5 °F31.5 °F100 %29.03 inESE (110°)1.2 mph
2:00 AM32.9 °F32.9 °F100 %28.95 inENE (60°)3.5 mph0.04 in
3:00 AM37.4 °F37.4 °F100 %28.89 inEast (80°)1.2 mph0.01 in
4:00 AM43.0 °F43.0 °F100 %28.81 inESE (120°)3.5 mph
4:00 AM43.0 °F43.0 °F100 %28.81 inESE (120°)3.5 mph0.08 in
5:00 AM42.4 °F42.4 °F100 %28.72 inNNW (330°)3.5 mph0.10 in
6:00 AM38.8 °F38.8 °F100 %28.66 inWSW (240°)3.5 mph0.11 in
7:00 AM42.0 °F42.0 °F100 %28.63 inSW (230°)10.4 mph
7:00 AM42.1 °F42.1 °F100 %28.63 inSW (230°)10.4 mph19.6 mph0.16 in
8:00 AM37.0 °F36.3 °F97 %28.64 inWSW (250°)8.1 mph0.07 in
9:00 AM34.9 °F34.3 °F98 %28.65 inWSW (240°)5.8 mph
10:00 AM32.0 °F31.0 °F92 %28.70 inWSW (250°)13.8 mph
10:00 AM31.6 °F30.6 °F96 %28.70 inWSW (250°)13.8 mph21.9 mph
11:00 AM26.4 °F21.7 °F82 %28.74 inWSW (240°)16.1 mph28.8 mph
12:00 PM17.4 °F12.7 °F82 %28.82 inWSW (240°)15.0 mph24.2 mph
1:00 PM13.0 °F6.0 °F64 %28.87 inWSW (250°)16.1 mph
1:00 PM12.7 °F6.4 °F76 %28.87 inWSW (250°)16.1 mph25.3 mph
2:00 PM8.8 °F0.3 °F69 %28.93 inWSW (250°)16.1 mph31.1 mph
3:00 PM6.8 °F1.2 °F78 %28.98 inWest (260°)17.3 mph27.6 mph
4:00 PM5.0 °F-3.0 °F58 %29.04 inWest (260°)15.0 mph
4:00 PM5.0 °F-2.6 °F71 %29.04 inWest (260°)15.0 mph29.9 mph
5:00 PM3.9 °F-1.1 °F80 %29.10 inWest (270°)12.7 mph27.6 mph
6:00 PM2.1 °F-4.5 °F74 %29.18 inWest (270°)17.3 mph32.2 mph
7:00 PM1.0 °F-5.0 °F65 %29.23 inWest (270°)13.8 mph
7:00 PM1.4 °F-4.9 °F75 %29.23 inWest (270°)13.8 mph23.0 mph
8:00 PM0.5 °F-5.8 °F75 %29.26 inWest (270°)11.5 mph20.7 mph
9:00 PM-0.6 °F-7.2 °F73 %29.30 inWest (270°)15.0 mph23.0 mph
10:00 PM-2.0 °F-8.0 °F62 %29.34 inWest (280°)16.1 mph
10:00 PM-1.8 °F-8.5 °F73 %29.34 inWest (280°)16.1 mph27.6 mph
11:00 PM-2.4 °F-7.6 °F78 %29.39 inWest (270°)10.4 mph
Hourly data recorded from CWPK, located miles away from Casey, Quebec







STORIES FROM OUR PARTNERS